createdAt,value
2022-08-09T03:55:30.098Z,44.00
2022-08-09T04:05:40.373Z,42.00
2022-08-09T04:16:19.672Z,42.00
2022-08-09T04:25:58.513Z,42.00
2022-08-09T04:36:05.745Z,42.00
2022-08-09T04:46:19.313Z,42.00
2022-08-09T04:56:26.125Z,42.00
2022-08-09T05:06:35.774Z,48.00
2022-08-09T05:18:39.623Z,50.00
2022-08-09T05:28:12.688Z,50.00
2022-08-09T05:38:22.138Z,52.00
2022-08-09T05:48:33.011Z,48.00
2022-08-09T05:58:40.335Z,48.00
2022-08-09T06:08:52.825Z,48.00
2022-08-09T06:18:59.925Z,50.00
2022-08-09T06:29:06.008Z,48.00
2022-08-09T06:39:12.819Z,48.00
2022-08-09T06:49:29.189Z,48.00
2022-08-09T07:00:49.734Z,46.00
2022-08-09T07:09:57.007Z,48.00
2022-08-09T07:19:55.446Z,46.00
2022-08-09T07:30:03.236Z,48.00
2022-08-09T07:40:10.507Z,46.00
2022-08-09T07:50:21.667Z,46.00
2022-08-09T08:00:36.332Z,44.00
2022-08-09T08:10:48.698Z,48.00
2022-08-09T08:20:55.834Z,44.00
2022-08-09T08:31:13.984Z,44.00
2022-08-09T08:41:14.641Z,46.00
2022-08-09T08:51:21.298Z,46.00
2022-08-09T09:01:35.453Z,46.00
2022-08-09T09:11:41.533Z,46.00
2022-08-09T09:21:47.857Z,48.00
2022-08-09T09:32:04.623Z,48.00
2022-08-09T09:42:12.021Z,48.00
2022-08-09T09:52:37.481Z,48.00
2022-08-09T10:02:30.110Z,46.00
2022-08-09T10:12:36.825Z,50.00
2022-08-09T10:22:47.539Z,46.00
2022-08-09T10:32:54.799Z,48.00
2022-08-09T10:43:02.620Z,48.00
2022-08-09T10:53:10.979Z,46.00
2022-08-09T11:03:47.152Z,50.00
2022-08-09T11:13:49.123Z,46.00
2022-08-09T11:23:40.008Z,48.00
2022-08-09T11:33:50.363Z,46.00
2022-08-09T11:43:57.966Z,48.00
2022-08-09T11:54:07.067Z,44.00
2022-08-09T12:04:23.568Z,44.00
2022-08-09T12:14:36.805Z,44.00
2022-08-09T12:24:39.099Z,48.00
2022-08-09T12:34:47.724Z,54.00
2022-08-09T12:44:54.573Z,50.00
2022-08-09T12:56:16.204Z,52.00
2022-08-09T13:05:14.965Z,48.00
2022-08-09T13:15:21.053Z,50.00
2022-08-09T13:25:28.402Z,48.00
2022-08-09T13:35:34.478Z,44.00
2022-08-09T13:46:44.680Z,44.00
2022-08-09T13:55:52.931Z,48.00
2022-08-09T14:06:02.831Z,46.00
2022-08-09T14:16:10.941Z,44.00
2022-08-09T14:26:18.640Z,46.00
2022-08-09T14:36:25.656Z,44.00
2022-08-09T14:46:55.886Z,44.00
2022-08-09T14:56:53.702Z,48.00
2022-08-09T15:06:57.394Z,48.00
2022-08-09T15:17:04.993Z,48.00
2022-08-09T15:27:11.663Z,48.00
2022-08-09T15:37:23.516Z,48.00
2022-08-09T15:47:31.863Z,54.00
2022-08-09T15:57:44.558Z,52.00
2022-08-09T16:07:52.094Z,48.00
2022-08-09T16:17:58.306Z,48.00
2022-08-09T16:28:05.467Z,48.00
2022-08-09T16:38:11.723Z,46.00
2022-08-09T16:48:38.945Z,48.00
2022-08-09T16:58:29.492Z,48.00
2022-08-09T17:15:30.889Z,34.00
2022-08-09T17:26:53.192Z,30.00
2022-08-09T18:24:09.919Z,32.00
2022-08-09T19:06:48.798Z,34.00
2022-08-09T19:35:26.329Z,30.00
2022-08-09T19:45:40.438Z,32.00
2022-08-09T19:56:02.106Z,32.00
2022-08-09T20:08:37.991Z,34.00
2022-08-09T20:26:45.239Z,34.00
2022-08-09T20:42:12.465Z,34.00
2022-08-09T20:52:22.388Z,36.00
2022-08-09T21:05:49.678Z,32.00
2022-08-09T21:14:07.798Z,38.00
2022-08-09T21:25:38.084Z,36.00
2022-08-09T21:53:56.613Z,34.00
2022-08-09T22:13:18.675Z,34.00
2022-08-09T23:54:55.989Z,28.00
